sensor_id;sensor_type;location;lat;lon;timestamp;temperature;humidity
1702;DHT22;848;48.354;10.064;2023-07-24T00:02:26;18.70;99.90
1702;DHT22;848;48.354;10.064;2023-07-24T00:04:54;18.70;99.90
1702;DHT22;848;48.354;10.064;2023-07-24T00:07:21;18.80;99.90
1702;DHT22;848;48.354;10.064;2023-07-24T00:09:48;18.90;99.90
1702;DHT22;848;48.354;10.064;2023-07-24T00:12:15;19.00;99.90
1702;DHT22;848;48.354;10.064;2023-07-24T00:14:42;19.00;99.90
1702;DHT22;848;48.354;10.064;2023-07-24T00:17:09;19.00;99.90
1702;DHT22;848;48.354;10.064;2023-07-24T00:19:37;19.10;99.90
1702;DHT22;848;48.354;10.064;2023-07-24T00:22:05;19.10;99.90
1702;DHT22;848;48.354;10.064;2023-07-24T00:24:32;19.00;99.90
1702;DHT22;848;48.354;10.064;2023-07-24T00:26:59;19.00;99.90
1702;DHT22;848;48.354;10.064;2023-07-24T00:29:28;18.90;99.90
1702;DHT22;848;48.354;10.064;2023-07-24T00:31:55;19.10;99.90
1702;DHT22;848;48.354;10.064;2023-07-24T00:34:22;18.90;99.90
1702;DHT22;848;48.354;10.064;2023-07-24T00:36:51;18.90;99.90
1702;DHT22;848;48.354;10.064;2023-07-24T00:39:17;18.90;99.90
1702;DHT22;848;48.354;10.064;2023-07-24T00:41:44;19.00;99.90
1702;DHT22;848;48.354;10.064;2023-07-24T00:44:11;19.10;99.90
1702;DHT22;848;48.354;10.064;2023-07-24T00:46:38;19.10;99.90
1702;DHT22;848;48.354;10.064;2023-07-24T00:49:05;19.00;99.90
1702;DHT22;848;48.354;10.064;2023-07-24T00:51:33;18.90;99.90
1702;DHT22;848;48.354;10.064;2023-07-24T00:54:02;18.90;99.90
1702;DHT22;848;48.354;10.064;2023-07-24T00:56:30;18.90;99.90
1702;DHT22;848;48.354;10.064;2023-07-24T00:58:58;18.80;99.90
1702;DHT22;848;48.354;10.064;2023-07-24T01:01:26;18.60;99.90
1702;DHT22;848;48.354;10.064;2023-07-24T01:03:53;18.30;99.90
1702;DHT22;848;48.354;10.064;2023-07-24T01:06:20;18.20;99.90
1702;DHT22;848;48.354;10.064;2023-07-24T01:08:47;18.20;99.90
1702;DHT22;848;48.354;10.064;2023-07-24T01:11:19;18.20;99.90
1702;DHT22;848;48.354;10.064;2023-07-24T01:16:16;18.30;99.90
1702;DHT22;848;48.354;10.064;2023-07-24T01:18:45;18.40;99.90
1702;DHT22;848;48.354;10.064;2023-07-24T01:21:13;18.40;99.90
1702;DHT22;848;48.354;10.064;2023-07-24T01:23:50;18.20;99.90
1702;DHT22;848;48.354;10.064;2023-07-24T01:26:23;18.00;99.90
1702;DHT22;848;48.354;10.064;2023-07-24T01:28:50;18.00;99.90
1702;DHT22;848;48.354;10.064;2023-07-24T01:31:17;18.10;99.90
1702;DHT22;848;48.354;10.064;2023-07-24T01:33:44;18.20;99.90
1702;DHT22;848;48.354;10.064;2023-07-24T01:36:11;18.20;99.90
1702;DHT22;848;48.354;10.064;2023-07-24T01:38:40;18.30;99.90
1702;DHT22;848;48.354;10.064;2023-07-24T01:41:07;18.30;99.90
1702;DHT22;848;48.354;10.064;2023-07-24T01:43:36;18.30;99.90
1702;DHT22;848;48.354;10.064;2023-07-24T01:46:03;18.40;99.90
1702;DHT22;848;48.354;10.064;2023-07-24T01:48:30;18.50;99.90
1702;DHT22;848;48.354;10.064;2023-07-24T01:50:56;18.50;99.90
1702;DHT22;848;48.354;10.064;2023-07-24T01:53:23;18.50;99.90
1702;DHT22;848;48.354;10.064;2023-07-24T01:55:50;18.60;99.90
1702;DHT22;848;48.354;10.064;2023-07-24T01:58:17;18.70;99.90
1702;DHT22;848;48.354;10.064;2023-07-24T02:00:45;18.70;99.90
1702;DHT22;848;48.354;10.064;2023-07-24T02:03:12;18.80;99.90
1702;DHT22;848;48.354;10.064;2023-07-24T02:05:39;18.80;99.90
1702;DHT22;848;48.354;10.064;2023-07-24T02:08:06;18.70;99.90
1702;DHT22;848;48.354;10.064;2023-07-24T02:10:36;18.60;99.90
1702;DHT22;848;48.354;10.064;2023-07-24T02:13:03;18.50;99.90
1702;DHT22;848;48.354;10.064;2023-07-24T02:15:32;18.40;99.90
1702;DHT22;848;48.354;10.064;2023-07-24T02:18:01;18.20;99.90
1702;DHT22;848;48.354;10.064;2023-07-24T02:20:28;17.90;99.90
1702;DHT22;848;48.354;10.064;2023-07-24T02:22:55;17.50;99.90
1702;DHT22;848;48.354;10.064;2023-07-24T02:25:21;17.50;99.90
1702;DHT22;848;48.354;10.064;2023-07-24T02:27:48;17.60;99.90
1702;DHT22;848;48.354;10.064;2023-07-24T02:30:15;17.80;99.90
1702;DHT22;848;48.354;10.064;2023-07-24T02:32:42;17.90;99.90
1702;DHT22;848;48.354;10.064;2023-07-24T02:35:10;17.80;99.90
1702;DHT22;848;48.354;10.064;2023-07-24T02:37:37;17.70;99.90
1702;DHT22;848;48.354;10.064;2023-07-24T02:40:05;17.60;99.90
1702;DHT22;848;48.354;10.064;2023-07-24T02:42:32;17.60;99.90
1702;DHT22;848;48.354;10.064;2023-07-24T02:44:59;17.60;99.90
1702;DHT22;848;48.354;10.064;2023-07-24T02:47:26;17.60;99.90
1702;DHT22;848;48.354;10.064;2023-07-24T02:49:53;17.50;99.90
1702;DHT22;848;48.354;10.064;2023-07-24T02:52:22;17.50;99.90
1702;DHT22;848;48.354;10.064;2023-07-24T02:54:49;17.40;99.90
1702;DHT22;848;48.354;10.064;2023-07-24T02:57:16;17.40;99.90
1702;DHT22;848;48.354;10.064;2023-07-24T02:59:43;17.50;99.90
1702;DHT22;848;48.354;10.064;2023-07-24T03:02:10;17.50;99.90
1702;DHT22;848;48.354;10.064;2023-07-24T03:04:37;17.50;99.90
1702;DHT22;848;48.354;10.064;2023-07-24T03:07:03;17.40;99.90
1702;DHT22;848;48.354;10.064;2023-07-24T03:09:32;17.40;99.90
1702;DHT22;848;48.354;10.064;2023-07-24T03:11:59;17.40;99.90
1702;DHT22;848;48.354;10.064;2023-07-24T03:14:25;17.40;99.90
1702;DHT22;848;48.354;10.064;2023-07-24T03:16:52;17.40;99.90
1702;DHT22;848;48.354;10.064;2023-07-24T03:19:19;17.40;99.90
1702;DHT22;848;48.354;10.064;2023-07-24T03:21:46;17.30;99.90
1702;DHT22;848;48.354;10.064;2023-07-24T03:24:13;17.20;99.90
1702;DHT22;848;48.354;10.064;2023-07-24T03:26:41;17.20;99.90
1702;DHT22;848;48.354;10.064;2023-07-24T03:29:07;17.20;99.90
1702;DHT22;848;48.354;10.064;2023-07-24T03:31:34;17.10;99.90
1702;DHT22;848;48.354;10.064;2023-07-24T03:34:01;17.20;99.90
1702;DHT22;848;48.354;10.064;2023-07-24T03:36:28;17.20;99.90
1702;DHT22;848;48.354;10.064;2023-07-24T03:38:54;17.20;99.90
1702;DHT22;848;48.354;10.064;2023-07-24T03:41:21;17.30;99.90
1702;DHT22;848;48.354;10.064;2023-07-24T03:43:50;17.40;99.90
1702;DHT22;848;48.354;10.064;2023-07-24T03:46:17;17.40;99.90
1702;DHT22;848;48.354;10.064;2023-07-24T03:48:43;17.30;99.90
1702;DHT22;848;48.354;10.064;2023-07-24T03:51:10;17.40;99.90
1702;DHT22;848;48.354;10.064;2023-07-24T03:53:37;17.50;99.90
1702;DHT22;848;48.354;10.064;2023-07-24T03:56:04;17.50;99.90
1702;DHT22;848;48.354;10.064;2023-07-24T03:58:31;17.50;99.90
1702;DHT22;848;48.354;10.064;2023-07-24T04:00:59;17.60;99.90
1702;DHT22;848;48.354;10.064;2023-07-24T04:03:26;17.50;99.90
1702;DHT22;848;48.354;10.064;2023-07-24T04:05:53;17.60;99.90
1702;DHT22;848;48.354;10.064;2023-07-24T04:08:20;17.60;99.90
1702;DHT22;848;48.354;10.064;2023-07-24T04:10:47;17.60;99.90
1702;DHT22;848;48.354;10.064;2023-07-24T04:13:14;17.60;99.90
1702;DHT22;848;48.354;10.064;2023-07-24T04:15:41;17.50;99.90
1702;DHT22;848;48.354;10.064;2023-07-24T04:18:11;17.40;99.90
1702;DHT22;848;48.354;10.064;2023-07-24T04:20:38;17.30;99.90
1702;DHT22;848;48.354;10.064;2023-07-24T04:23:05;17.30;99.90
1702;DHT22;848;48.354;10.064;2023-07-24T04:25:31;17.30;99.90
1702;DHT22;848;48.354;10.064;2023-07-24T04:27:58;17.30;99.90
1702;DHT22;848;48.354;10.064;2023-07-24T04:30:25;17.30;99.90
1702;DHT22;848;48.354;10.064;2023-07-24T04:32:52;17.40;99.90
1702;DHT22;848;48.354;10.064;2023-07-24T04:35:20;17.40;99.90
1702;DHT22;848;48.354;10.064;2023-07-24T04:37:47;17.30;99.90
1702;DHT22;848;48.354;10.064;2023-07-24T04:40:14;17.40;99.90
1702;DHT22;848;48.354;10.064;2023-07-24T04:42:41;17.50;99.90
1702;DHT22;848;48.354;10.064;2023-07-24T04:45:09;17.60;99.90
1702;DHT22;848;48.354;10.064;2023-07-24T04:47:36;17.80;99.90
1702;DHT22;848;48.354;10.064;2023-07-24T04:50:05;17.90;99.90
1702;DHT22;848;48.354;10.064;2023-07-24T04:52:33;18.00;99.90
1702;DHT22;848;48.354;10.064;2023-07-24T04:55:00;18.10;99.90
1702;DHT22;848;48.354;10.064;2023-07-24T04:57:28;18.50;99.90
1702;DHT22;848;48.354;10.064;2023-07-24T04:59:55;18.30;99.90
1702;DHT22;848;48.354;10.064;2023-07-24T05:02:21;18.30;99.90
1702;DHT22;848;48.354;10.064;2023-07-24T05:04:48;18.20;99.90
1702;DHT22;848;48.354;10.064;2023-07-24T05:07:18;18.20;99.90
1702;DHT22;848;48.354;10.064;2023-07-24T05:09:47;18.30;99.90
1702;DHT22;848;48.354;10.064;2023-07-24T05:12:14;18.40;99.90
1702;DHT22;848;48.354;10.064;2023-07-24T05:14:40;18.60;99.90
1702;DHT22;848;48.354;10.064;2023-07-24T05:17:07;18.70;99.90
1702;DHT22;848;48.354;10.064;2023-07-24T05:19:34;18.90;99.90
1702;DHT22;848;48.354;10.064;2023-07-24T05:22:01;19.00;99.90
1702;DHT22;848;48.354;10.064;2023-07-24T05:24:28;19.10;99.90
1702;DHT22;848;48.354;10.064;2023-07-24T05:26:56;18.90;99.90
1702;DHT22;848;48.354;10.064;2023-07-24T05:29:23;18.80;99.90
1702;DHT22;848;48.354;10.064;2023-07-24T05:31:50;18.70;99.90
1702;DHT22;848;48.354;10.064;2023-07-24T05:34:17;18.60;99.90
1702;DHT22;848;48.354;10.064;2023-07-24T05:36:44;18.80;99.90
1702;DHT22;848;48.354;10.064;2023-07-24T05:39:10;18.90;99.90
1702;DHT22;848;48.354;10.064;2023-07-24T05:41:37;19.20;99.90
1702;DHT22;848;48.354;10.064;2023-07-24T05:44:05;19.30;99.90
1702;DHT22;848;48.354;10.064;2023-07-24T05:46:32;19.30;99.90
1702;DHT22;848;48.354;10.064;2023-07-24T05:48:59;19.20;99.90
1702;DHT22;848;48.354;10.064;2023-07-24T05:51:27;19.10;99.90
1702;DHT22;848;48.354;10.064;2023-07-24T05:53:54;19.00;99.90
1702;DHT22;848;48.354;10.064;2023-07-24T05:56:21;19.00;99.90
1702;DHT22;848;48.354;10.064;2023-07-24T05:58:47;18.80;99.90
1702;DHT22;848;48.354;10.064;2023-07-24T06:01:19;18.70;99.90
1702;DHT22;848;48.354;10.064;2023-07-24T06:03:45;18.60;99.90
1702;DHT22;848;48.354;10.064;2023-07-24T06:06:12;18.60;99.90
1702;DHT22;848;48.354;10.064;2023-07-24T06:08:39;18.50;99.90
1702;DHT22;848;48.354;10.064;2023-07-24T06:11:06;18.50;99.90
1702;DHT22;848;48.354;10.064;2023-07-24T06:13:33;18.50;99.90
1702;DHT22;848;48.354;10.064;2023-07-24T06:16:00;18.50;99.90
1702;DHT22;848;48.354;10.064;2023-07-24T06:18:28;18.50;99.90
1702;DHT22;848;48.354;10.064;2023-07-24T06:20:55;18.50;99.90
1702;DHT22;848;48.354;10.064;2023-07-24T06:23:22;18.50;99.90
1702;DHT22;848;48.354;10.064;2023-07-24T06:25:49;18.50;99.90
1702;DHT22;848;48.354;10.064;2023-07-24T06:28:17;18.60;99.90
1702;DHT22;848;48.354;10.064;2023-07-24T06:30:44;18.50;99.90
1702;DHT22;848;48.354;10.064;2023-07-24T06:33:11;18.50;99.90
1702;DHT22;848;48.354;10.064;2023-07-24T06:35:39;18.50;99.90
1702;DHT22;848;48.354;10.064;2023-07-24T06:38:06;18.50;99.90
1702;DHT22;848;48.354;10.064;2023-07-24T06:40:34;18.50;99.90
1702;DHT22;848;48.354;10.064;2023-07-24T06:43:00;18.60;99.90
1702;DHT22;848;48.354;10.064;2023-07-24T06:45:27;18.50;99.90
1702;DHT22;848;48.354;10.064;2023-07-24T06:47:54;18.50;99.90
1702;DHT22;848;48.354;10.064;2023-07-24T06:50:21;18.50;99.90
1702;DHT22;848;48.354;10.064;2023-07-24T06:52:49;18.50;99.90
1702;DHT22;848;48.354;10.064;2023-07-24T06:55:19;18.50;99.90
1702;DHT22;848;48.354;10.064;2023-07-24T06:57:46;18.60;99.90
1702;DHT22;848;48.354;10.064;2023-07-24T07:00:13;18.60;99.90
1702;DHT22;848;48.354;10.064;2023-07-24T07:02:40;18.60;99.90
1702;DHT22;848;48.354;10.064;2023-07-24T07:05:07;18.60;99.90
1702;DHT22;848;48.354;10.064;2023-07-24T07:07:34;18.70;99.90
1702;DHT22;848;48.354;10.064;2023-07-24T07:10:13;18.70;99.90
1702;DHT22;848;48.354;10.064;2023-07-24T07:12:40;18.70;99.90
1702;DHT22;848;48.354;10.064;2023-07-24T07:15:08;18.90;99.90
1702;DHT22;848;48.354;10.064;2023-07-24T07:17:35;19.00;99.90
1702;DHT22;848;48.354;10.064;2023-07-24T07:20:02;19.10;99.90
1702;DHT22;848;48.354;10.064;2023-07-24T07:22:29;19.20;99.90
1702;DHT22;848;48.354;10.064;2023-07-24T07:24:56;19.20;99.90
1702;DHT22;848;48.354;10.064;2023-07-24T07:27:24;19.30;99.90
1702;DHT22;848;48.354;10.064;2023-07-24T07:29:51;19.40;99.90
1702;DHT22;848;48.354;10.064;2023-07-24T07:32:18;19.50;99.90
1702;DHT22;848;48.354;10.064;2023-07-24T07:34:45;19.50;99.90
1702;DHT22;848;48.354;10.064;2023-07-24T07:37:12;19.50;99.90
1702;DHT22;848;48.354;10.064;2023-07-24T07:39:38;19.50;99.90
1702;DHT22;848;48.354;10.064;2023-07-24T07:42:05;19.50;99.90
1702;DHT22;848;48.354;10.064;2023-07-24T07:44:34;19.70;99.90
1702;DHT22;848;48.354;10.064;2023-07-24T07:47:01;19.90;99.90
1702;DHT22;848;48.354;10.064;2023-07-24T07:49:27;20.00;99.90
1702;DHT22;848;48.354;10.064;2023-07-24T07:51:54;20.20;99.90
1702;DHT22;848;48.354;10.064;2023-07-24T07:54:21;20.50;99.90
1702;DHT22;848;48.354;10.064;2023-07-24T07:56:48;20.70;99.90
1702;DHT22;848;48.354;10.064;2023-07-24T07:59:15;21.00;99.90
1702;DHT22;848;48.354;10.064;2023-07-24T08:01:43;21.50;99.90
1702;DHT22;848;48.354;10.064;2023-07-24T08:04:11;21.80;99.90
1702;DHT22;848;48.354;10.064;2023-07-24T08:06:38;22.00;99.90
1702;DHT22;848;48.354;10.064;2023-07-24T08:09:05;21.80;99.90
1702;DHT22;848;48.354;10.064;2023-07-24T08:11:32;21.70;99.90
1702;DHT22;848;48.354;10.064;2023-07-24T08:16:34;21.50;99.90
1702;DHT22;848;48.354;10.064;2023-07-24T08:19:03;21.50;99.90
1702;DHT22;848;48.354;10.064;2023-07-24T08:21:30;21.50;99.90
1702;DHT22;848;48.354;10.064;2023-07-24T08:23:56;21.70;99.90
1702;DHT22;848;48.354;10.064;2023-07-24T08:26:23;22.10;99.90
1702;DHT22;848;48.354;10.064;2023-07-24T08:28:51;22.80;99.90
1702;DHT22;848;48.354;10.064;2023-07-24T08:31:18;23.40;99.90
1702;DHT22;848;48.354;10.064;2023-07-24T08:33:45;23.80;99.90
1702;DHT22;848;48.354;10.064;2023-07-24T08:36:14;23.60;99.90
1702;DHT22;848;48.354;10.064;2023-07-24T08:38:41;23.20;99.90
1702;DHT22;848;48.354;10.064;2023-07-24T08:41:10;23.00;99.90
1702;DHT22;848;48.354;10.064;2023-07-24T08:43:38;23.30;99.90
1702;DHT22;848;48.354;10.064;2023-07-24T08:46:06;23.70;99.90
1702;DHT22;848;48.354;10.064;2023-07-24T08:48:35;23.50;99.90
1702;DHT22;848;48.354;10.064;2023-07-24T08:51:03;23.40;99.90
1702;DHT22;848;48.354;10.064;2023-07-24T08:53:33;23.50;99.90
1702;DHT22;848;48.354;10.064;2023-07-24T08:56:02;23.40;99.90
1702;DHT22;848;48.354;10.064;2023-07-24T08:58:29;23.30;99.90
1702;DHT22;848;48.354;10.064;2023-07-24T09:00:56;23.20;99.90
1702;DHT22;848;48.354;10.064;2023-07-24T09:03:24;23.10;99.90
1702;DHT22;848;48.354;10.064;2023-07-24T09:05:51;23.30;99.90
1702;DHT22;848;48.354;10.064;2023-07-24T09:08:28;23.70;99.90
1702;DHT22;848;48.354;10.064;2023-07-24T09:10:57;24.40;99.90
1702;DHT22;848;48.354;10.064;2023-07-24T09:13:24;24.70;99.90
1702;DHT22;848;48.354;10.064;2023-07-24T09:15:52;24.50;99.90
1702;DHT22;848;48.354;10.064;2023-07-24T09:18:20;24.40;99.90
1702;DHT22;848;48.354;10.064;2023-07-24T09:20:47;23.90;99.90
1702;DHT22;848;48.354;10.064;2023-07-24T09:23:15;23.40;99.90
1702;DHT22;848;48.354;10.064;2023-07-24T09:25:43;23.10;99.90
1702;DHT22;848;48.354;10.064;2023-07-24T09:28:13;23.00;99.90
1702;DHT22;848;48.354;10.064;2023-07-24T09:30:40;22.90;99.90
1702;DHT22;848;48.354;10.064;2023-07-24T09:33:07;22.70;99.90
1702;DHT22;848;48.354;10.064;2023-07-24T09:35:34;22.70;99.90
1702;DHT22;848;48.354;10.064;2023-07-24T09:38:03;22.70;99.90
1702;DHT22;848;48.354;10.064;2023-07-24T09:40:37;22.70;99.90
1702;DHT22;848;48.354;10.064;2023-07-24T09:43:15;22.70;99.90
1702;DHT22;848;48.354;10.064;2023-07-24T09:45:43;22.70;99.90
1702;DHT22;848;48.354;10.064;2023-07-24T09:48:12;22.70;99.90
1702;DHT22;848;48.354;10.064;2023-07-24T09:50:41;22.60;99.90
1702;DHT22;848;48.354;10.064;2023-07-24T09:53:12;22.60;99.90
1702;DHT22;848;48.354;10.064;2023-07-24T09:55:47;22.70;99.90
1702;DHT22;848;48.354;10.064;2023-07-24T09:58:21;22.80;99.90
1702;DHT22;848;48.354;10.064;2023-07-24T10:00:49;23.00;99.90
1702;DHT22;848;48.354;10.064;2023-07-24T10:03:16;23.30;99.90
1702;DHT22;848;48.354;10.064;2023-07-24T10:05:46;23.60;99.90
1702;DHT22;848;48.354;10.064;2023-07-24T10:08:14;23.80;99.90
1702;DHT22;848;48.354;10.064;2023-07-24T10:10:41;24.00;99.90
1702;DHT22;848;48.354;10.064;2023-07-24T10:13:09;24.10;99.90
1702;DHT22;848;48.354;10.064;2023-07-24T10:15:40;23.90;99.90
1702;DHT22;848;48.354;10.064;2023-07-24T10:18:09;23.90;99.90
1702;DHT22;848;48.354;10.064;2023-07-24T10:20:37;23.90;99.90
1702;DHT22;848;48.354;10.064;2023-07-24T10:23:05;24.00;99.90
1702;DHT22;848;48.354;10.064;2023-07-24T10:25:33;24.20;99.90
1702;DHT22;848;48.354;10.064;2023-07-24T10:28:04;24.50;99.90
1702;DHT22;848;48.354;10.064;2023-07-24T10:30:33;24.80;99.90
1702;DHT22;848;48.354;10.064;2023-07-24T10:33:10;24.80;99.90
1702;DHT22;848;48.354;10.064;2023-07-24T10:35:42;25.00;99.90
1702;DHT22;848;48.354;10.064;2023-07-24T10:38:09;25.00;99.90
1702;DHT22;848;48.354;10.064;2023-07-24T10:40:36;24.80;99.90
1702;DHT22;848;48.354;10.064;2023-07-24T10:43:07;24.60;99.90
1702;DHT22;848;48.354;10.064;2023-07-24T10:45:46;24.70;99.90
1702;DHT22;848;48.354;10.064;2023-07-24T10:48:15;24.40;99.90
1702;DHT22;848;48.354;10.064;2023-07-24T10:50:43;24.20;99.90
1702;DHT22;848;48.354;10.064;2023-07-24T10:53:11;24.30;99.90
1702;DHT22;848;48.354;10.064;2023-07-24T10:55:38;24.40;99.90
1702;DHT22;848;48.354;10.064;2023-07-24T10:58:06;24.50;99.90
1702;DHT22;848;48.354;10.064;2023-07-24T11:00:33;24.60;99.90
1702;DHT22;848;48.354;10.064;2023-07-24T11:03:00;24.40;99.90
1702;DHT22;848;48.354;10.064;2023-07-24T11:05:28;24.20;99.90
1702;DHT22;848;48.354;10.064;2023-07-24T11:07:55;23.90;99.90
1702;DHT22;848;48.354;10.064;2023-07-24T11:10:23;23.60;99.90
1702;DHT22;848;48.354;10.064;2023-07-24T11:12:50;23.20;99.90
1702;DHT22;848;48.354;10.064;2023-07-24T11:15:24;22.90;99.90
1702;DHT22;848;48.354;10.064;2023-07-24T11:17:51;22.60;99.90
1702;DHT22;848;48.354;10.064;2023-07-24T11:20:19;22.40;99.90
1702;DHT22;848;48.354;10.064;2023-07-24T11:22:47;22.10;99.90
1702;DHT22;848;48.354;10.064;2023-07-24T11:25:14;21.80;99.90
1702;DHT22;848;48.354;10.064;2023-07-24T11:27:42;21.60;99.90
1702;DHT22;848;48.354;10.064;2023-07-24T11:30:10;21.30;99.90
1702;DHT22;848;48.354;10.064;2023-07-24T11:32:39;21.00;99.90
1702;DHT22;848;48.354;10.064;2023-07-24T11:35:07;20.60;99.90
1702;DHT22;848;48.354;10.064;2023-07-24T11:37:35;20.40;99.90
1702;DHT22;848;48.354;10.064;2023-07-24T11:40:05;20.30;99.90
1702;DHT22;848;48.354;10.064;2023-07-24T11:42:37;20.30;99.90
1702;DHT22;848;48.354;10.064;2023-07-24T11:45:07;20.30;99.90
1702;DHT22;848;48.354;10.064;2023-07-24T11:47:45;20.20;99.90
1702;DHT22;848;48.354;10.064;2023-07-24T11:50:13;20.00;99.90
1702;DHT22;848;48.354;10.064;2023-07-24T11:52:41;19.90;99.90
1702;DHT22;848;48.354;10.064;2023-07-24T11:55:11;19.90;99.90
1702;DHT22;848;48.354;10.064;2023-07-24T11:57:38;20.00;99.90
1702;DHT22;848;48.354;10.064;2023-07-24T12:00:16;20.10;99.90
1702;DHT22;848;48.354;10.064;2023-07-24T12:02:43;20.30;99.90
1702;DHT22;848;48.354;10.064;2023-07-24T12:05:11;20.40;99.90
1702;DHT22;848;48.354;10.064;2023-07-24T12:07:38;20.50;99.90
1702;DHT22;848;48.354;10.064;2023-07-24T12:10:06;20.60;99.90
1702;DHT22;848;48.354;10.064;2023-07-24T12:12:39;20.60;99.90
1702;DHT22;848;48.354;10.064;2023-07-24T12:15:07;20.50;99.90
1702;DHT22;848;48.354;10.064;2023-07-24T12:17:34;20.40;99.90
1702;DHT22;848;48.354;10.064;2023-07-24T12:20:01;20.50;99.90
1702;DHT22;848;48.354;10.064;2023-07-24T12:22:30;20.60;99.90
1702;DHT22;848;48.354;10.064;2023-07-24T12:24:57;20.70;99.90
1702;DHT22;848;48.354;10.064;2023-07-24T12:27:23;21.00;99.90
1702;DHT22;848;48.354;10.064;2023-07-24T12:29:52;21.20;99.90
1702;DHT22;848;48.354;10.064;2023-07-24T12:32:19;21.30;99.90
1702;DHT22;848;48.354;10.064;2023-07-24T12:34:49;21.20;99.90
1702;DHT22;848;48.354;10.064;2023-07-24T12:37:16;21.00;99.90
1702;DHT22;848;48.354;10.064;2023-07-24T12:39:44;20.90;99.90
1702;DHT22;848;48.354;10.064;2023-07-24T12:42:11;20.80;99.90
1702;DHT22;848;48.354;10.064;2023-07-24T12:44:38;20.70;99.90
1702;DHT22;848;48.354;10.064;2023-07-24T12:47:06;20.70;99.90
1702;DHT22;848;48.354;10.064;2023-07-24T12:49:33;20.70;99.90
1702;DHT22;848;48.354;10.064;2023-07-24T12:52:00;20.80;99.90
1702;DHT22;848;48.354;10.064;2023-07-24T12:54:27;20.80;99.90
1702;DHT22;848;48.354;10.064;2023-07-24T12:56:54;20.90;99.90
1702;DHT22;848;48.354;10.064;2023-07-24T12:59:21;20.80;99.90
1702;DHT22;848;48.354;10.064;2023-07-24T13:01:48;20.80;99.90
1702;DHT22;848;48.354;10.064;2023-07-24T13:04:16;20.80;99.90
1702;DHT22;848;48.354;10.064;2023-07-24T13:06:43;20.70;99.90
1702;DHT22;848;48.354;10.064;2023-07-24T13:09:10;20.60;99.90
1702;DHT22;848;48.354;10.064;2023-07-24T13:11:37;20.70;99.90
1702;DHT22;848;48.354;10.064;2023-07-24T13:14:04;20.80;99.90
1702;DHT22;848;48.354;10.064;2023-07-24T13:16:31;20.90;99.90
1702;DHT22;848;48.354;10.064;2023-07-24T13:18:58;21.10;99.90
1702;DHT22;848;48.354;10.064;2023-07-24T13:21:27;21.10;99.90
1702;DHT22;848;48.354;10.064;2023-07-24T13:23:53;21.20;99.90
1702;DHT22;848;48.354;10.064;2023-07-24T13:26:21;21.30;99.90
1702;DHT22;848;48.354;10.064;2023-07-24T13:28:48;21.30;99.90
1702;DHT22;848;48.354;10.064;2023-07-24T13:31:17;21.50;99.90
1702;DHT22;848;48.354;10.064;2023-07-24T13:33:45;21.70;99.90
1702;DHT22;848;48.354;10.064;2023-07-24T13:36:12;21.80;99.90
1702;DHT22;848;48.354;10.064;2023-07-24T13:38:40;21.90;99.90
1702;DHT22;848;48.354;10.064;2023-07-24T13:41:08;21.80;99.90
1702;DHT22;848;48.354;10.064;2023-07-24T13:43:35;21.70;99.90
1702;DHT22;848;48.354;10.064;2023-07-24T13:46:02;21.70;99.90
1702;DHT22;848;48.354;10.064;2023-07-24T13:48:30;21.70;99.90
1702;DHT22;848;48.354;10.064;2023-07-24T13:50:57;21.70;99.90
1702;DHT22;848;48.354;10.064;2023-07-24T13:53:24;21.80;99.90
1702;DHT22;848;48.354;10.064;2023-07-24T13:55:52;22.10;99.90
1702;DHT22;848;48.354;10.064;2023-07-24T13:58:20;22.30;99.90
1702;DHT22;848;48.354;10.064;2023-07-24T14:00:46;22.40;99.90
1702;DHT22;848;48.354;10.064;2023-07-24T14:03:13;22.30;99.90
1702;DHT22;848;48.354;10.064;2023-07-24T14:05:40;22.30;99.90
1702;DHT22;848;48.354;10.064;2023-07-24T14:08:07;22.20;99.90
1702;DHT22;848;48.354;10.064;2023-07-24T14:10:34;22.10;99.90
1702;DHT22;848;48.354;10.064;2023-07-24T14:13:03;22.00;99.90
1702;DHT22;848;48.354;10.064;2023-07-24T14:15:30;21.80;99.90
1702;DHT22;848;48.354;10.064;2023-07-24T14:17:57;21.70;99.90
1702;DHT22;848;48.354;10.064;2023-07-24T14:20:23;21.50;99.90
1702;DHT22;848;48.354;10.064;2023-07-24T14:22:50;21.20;99.90
1702;DHT22;848;48.354;10.064;2023-07-24T14:25:17;21.10;99.90
1702;DHT22;848;48.354;10.064;2023-07-24T14:27:44;20.90;99.90
1702;DHT22;848;48.354;10.064;2023-07-24T14:30:13;20.90;99.90
1702;DHT22;848;48.354;10.064;2023-07-24T14:32:39;21.00;99.90
1702;DHT22;848;48.354;10.064;2023-07-24T14:35:07;21.10;99.90
1702;DHT22;848;48.354;10.064;2023-07-24T14:37:34;21.30;99.90
1702;DHT22;848;48.354;10.064;2023-07-24T14:40:01;21.60;99.90
1702;DHT22;848;48.354;10.064;2023-07-24T14:42:28;21.70;99.90
1702;DHT22;848;48.354;10.064;2023-07-24T14:44:55;21.90;99.90
1702;DHT22;848;48.354;10.064;2023-07-24T14:47:28;21.90;99.90
1702;DHT22;848;48.354;10.064;2023-07-24T14:49:57;21.90;99.90
1702;DHT22;848;48.354;10.064;2023-07-24T14:52:24;21.80;99.90
1702;DHT22;848;48.354;10.064;2023-07-24T14:54:51;21.60;99.90
1702;DHT22;848;48.354;10.064;2023-07-24T14:57:18;21.60;99.90
1702;DHT22;848;48.354;10.064;2023-07-24T14:59:45;21.60;99.90
1702;DHT22;848;48.354;10.064;2023-07-24T15:02:11;21.50;99.90
1702;DHT22;848;48.354;10.064;2023-07-24T15:04:40;21.30;99.90
1702;DHT22;848;48.354;10.064;2023-07-24T15:07:07;21.20;99.90
1702;DHT22;848;48.354;10.064;2023-07-24T15:09:33;21.10;99.90
1702;DHT22;848;48.354;10.064;2023-07-24T15:12:00;21.00;99.90
1702;DHT22;848;48.354;10.064;2023-07-24T15:14:27;20.90;99.90
1702;DHT22;848;48.354;10.064;2023-07-24T15:16:54;20.80;99.90
1702;DHT22;848;48.354;10.064;2023-07-24T15:19:21;20.60;99.90
1702;DHT22;848;48.354;10.064;2023-07-24T15:21:49;20.40;99.90
1702;DHT22;848;48.354;10.064;2023-07-24T15:24:16;20.20;99.90
1702;DHT22;848;48.354;10.064;2023-07-24T15:26:44;20.10;99.90
1702;DHT22;848;48.354;10.064;2023-07-24T15:29:11;20.10;99.90
1702;DHT22;848;48.354;10.064;2023-07-24T15:31:40;20.10;99.90
1702;DHT22;848;48.354;10.064;2023-07-24T15:34:07;20.10;99.90
1702;DHT22;848;48.354;10.064;2023-07-24T15:36:34;20.10;99.90
1702;DHT22;848;48.354;10.064;2023-07-24T15:39:04;20.10;99.90
1702;DHT22;848;48.354;10.064;2023-07-24T15:41:31;20.20;99.90
1702;DHT22;848;48.354;10.064;2023-07-24T15:43:58;20.20;99.90
1702;DHT22;848;48.354;10.064;2023-07-24T15:46:25;20.30;99.90
1702;DHT22;848;48.354;10.064;2023-07-24T15:48:55;20.30;99.90
1702;DHT22;848;48.354;10.064;2023-07-24T15:51:22;20.30;99.90
1702;DHT22;848;48.354;10.064;2023-07-24T15:53:49;20.30;99.90
1702;DHT22;848;48.354;10.064;2023-07-24T15:56:17;20.30;99.90
1702;DHT22;848;48.354;10.064;2023-07-24T15:58:45;20.40;99.90
1702;DHT22;848;48.354;10.064;2023-07-24T16:01:12;20.40;99.90
1702;DHT22;848;48.354;10.064;2023-07-24T16:03:39;20.50;99.90
1702;DHT22;848;48.354;10.064;2023-07-24T16:06:07;20.50;99.90
1702;DHT22;848;48.354;10.064;2023-07-24T16:08:35;20.50;99.90
1702;DHT22;848;48.354;10.064;2023-07-24T16:11:03;20.50;99.90